createdAt,value
2018-05-18T00:00:59.157Z,89.08
2018-05-18T00:01:59.135Z,88.13
2018-05-18T00:02:59.113Z,88.13
2018-05-18T00:03:59.094Z,89.37
2018-05-18T00:04:59.077Z,88.60
2018-05-18T00:05:59.073Z,89.27
2018-05-18T00:06:59.036Z,89.18
2018-05-18T00:07:59.019Z,89.08
2018-05-18T00:08:58.998Z,89.18
2018-05-18T00:09:58.978Z,89.65
2018-05-18T00:10:58.977Z,89.89
2018-05-18T00:11:58.941Z,89.75
2018-05-18T00:12:58.922Z,89.08
2018-05-18T00:13:58.901Z,90.13
2018-05-18T00:14:58.882Z,89.37
2018-05-18T00:15:58.875Z,89.84
2018-05-18T00:16:58.845Z,90.03
2018-05-18T00:17:58.823Z,89.94
2018-05-18T00:18:58.803Z,89.84
2018-05-18T00:19:58.800Z,90.03
2018-05-18T00:20:58.778Z,90.03
2018-05-18T00:21:58.745Z,89.80
2018-05-18T00:22:58.726Z,90.28
2018-05-18T00:23:58.708Z,90.18
2018-05-18T00:24:58.687Z,90.37
2018-05-18T00:25:58.675Z,90.37
2018-05-18T00:26:58.657Z,90.37
2018-05-18T00:27:58.627Z,90.28
2018-05-18T00:28:58.610Z,90.66
2018-05-18T00:29:58.589Z,90.66
2018-05-18T00:30:58.569Z,90.66
2018-05-18T00:31:58.578Z,90.75
2018-05-18T00:32:58.530Z,91.42
2018-05-18T00:33:58.511Z,91.42
2018-05-18T00:34:58.490Z,91.61
2018-05-18T00:35:58.470Z,91.51
2018-05-18T00:36:58.452Z,91.42
2018-05-18T00:37:58.442Z,91.42
2018-05-18T00:38:58.412Z,91.61
2018-05-18T00:39:58.480Z,91.61
2018-05-18T00:40:58.373Z,91.22
2018-05-18T00:41:58.354Z,91.61
2018-05-18T00:42:58.345Z,91.22
2018-05-18T00:43:58.317Z,91.70
2018-05-18T00:44:58.295Z,91.80
2018-05-18T00:45:58.276Z,91.51
2018-05-18T00:46:58.256Z,91.80
2018-05-18T00:47:58.245Z,92.08
2018-05-18T00:48:58.216Z,92.36
2018-05-18T00:49:58.196Z,92.08
2018-05-18T00:50:58.176Z,91.89
2018-05-18T00:51:58.153Z,91.80
2018-05-18T00:52:58.149Z,91.89
2018-05-18T00:53:58.119Z,92.18
2018-05-18T00:54:58.096Z,92.18
2018-05-18T00:55:58.077Z,92.27
2018-05-18T00:56:58.057Z,91.61
2018-05-18T00:57:58.037Z,92.18
2018-05-18T00:58:58.028Z,92.08
2018-05-18T00:59:57.996Z,92.08
2018-05-18T01:00:57.977Z,92.27
2018-05-18T01:01:57.958Z,92.36
2018-05-18T01:02:57.937Z,92.27
2018-05-18T01:03:57.938Z,92.08
2018-05-18T01:04:57.898Z,92.94
2018-05-18T01:05:57.881Z,93.04
2018-05-18T01:06:57.858Z,92.84
2018-05-18T01:07:57.839Z,92.94
2018-05-18T01:08:57.819Z,92.46
2018-05-18T01:09:57.815Z,92.46
2018-05-18T01:10:57.776Z,92.65
2018-05-18T01:11:57.759Z,92.08
2018-05-18T01:12:57.740Z,92.08
2018-05-18T01:13:57.722Z,92.08
2018-05-18T01:14:57.706Z,92.84
2018-05-18T01:15:57.779Z,92.84
2018-05-18T01:16:57.660Z,93.04
2018-05-18T01:17:57.640Z,92.75
2018-05-18T01:18:57.621Z,93.04
2018-05-18T01:19:57.600Z,92.08
2018-05-18T01:20:57.590Z,92.75
2018-05-18T01:21:57.564Z,93.04
2018-05-18T01:22:57.541Z,93.04
2018-05-18T01:23:57.527Z,93.23
2018-05-18T01:24:57.501Z,92.84
2018-05-18T01:25:57.498Z,93.13
2018-05-18T01:26:57.461Z,92.84
2018-05-18T01:27:57.441Z,92.94
2018-05-18T01:28:57.422Z,92.84
2018-05-18T01:29:57.407Z,92.56
2018-05-18T01:30:57.392Z,92.36
2018-05-18T01:31:57.362Z,92.18
2018-05-18T01:32:57.345Z,92.36
2018-05-18T01:33:57.328Z,91.80
2018-05-18T01:34:57.303Z,91.32
2018-05-18T01:35:57.310Z,91.13
2018-05-18T01:36:57.265Z,91.22
2018-05-18T01:37:57.244Z,91.51
2018-05-18T01:38:57.224Z,91.61
2018-05-18T01:39:57.207Z,91.13
2018-05-18T01:40:57.185Z,91.03
2018-05-18T01:41:57.436Z,90.84
2018-05-18T01:42:57.145Z,90.94
2018-05-18T01:43:57.125Z,90.66
2018-05-18T01:44:57.105Z,90.94
2018-05-18T01:45:57.087Z,91.42
2018-05-18T01:46:57.065Z,91.32
2018-05-18T01:47:57.060Z,91.61
2018-05-18T01:48:57.027Z,91.13
2018-05-18T01:49:57.007Z,91.32
2018-05-18T01:50:56.987Z,91.22
2018-05-18T01:51:56.970Z,91.70
2018-05-18T01:52:56.959Z,91.32
2018-05-18T01:53:56.930Z,91.42
2018-05-18T01:54:56.907Z,91.51
2018-05-18T01:55:56.891Z,91.22
2018-05-18T01:56:56.869Z,91.32
2018-05-18T01:57:56.863Z,91.22
2018-05-18T01:58:56.829Z,91.99
2018-05-18T01:59:56.809Z,91.70
2018-05-18T02:00:56.792Z,92.27
2018-05-18T02:01:56.776Z,92.18
2018-05-18T02:02:56.761Z,92.08
2018-05-18T02:03:56.733Z,92.27
2018-05-18T02:04:56.713Z,92.36
2018-05-18T02:05:56.695Z,92.27
2018-05-18T02:06:56.672Z,92.36
2018-05-18T02:07:56.934Z,92.75
2018-05-18T02:08:56.634Z,92.18
2018-05-18T02:09:56.613Z,92.75
2018-05-18T02:10:56.594Z,93.04
2018-05-18T02:11:56.576Z,92.27
2018-05-18T02:12:56.555Z,92.27
2018-05-18T02:13:56.551Z,92.46
2018-05-18T02:14:56.515Z,92.84
2018-05-18T02:15:56.497Z,92.75
2018-05-18T02:16:56.478Z,92.84
2018-05-18T02:17:56.457Z,93.23
2018-05-18T02:18:56.438Z,93.32
2018-05-18T02:19:56.428Z,93.23
2018-05-18T02:20:56.399Z,93.23
2018-05-18T02:21:56.381Z,93.41
2018-05-18T02:22:56.360Z,93.04
2018-05-18T02:23:56.339Z,92.75
2018-05-18T02:24:56.333Z,93.04
2018-05-18T02:25:56.308Z,93.23
2018-05-18T02:26:56.283Z,93.89
2018-05-18T02:27:56.262Z,93.23
2018-05-18T02:28:56.247Z,93.13
2018-05-18T02:29:56.234Z,92.84
2018-05-18T02:30:56.204Z,93.23
2018-05-18T02:31:56.184Z,93.60
2018-05-18T02:32:56.167Z,93.60
2018-05-18T02:33:56.146Z,93.04
2018-05-18T02:34:56.150Z,93.79
2018-05-18T02:35:56.107Z,93.41
2018-05-18T02:36:56.087Z,93.32
2018-05-18T02:37:56.066Z,93.13
2018-05-18T02:38:56.049Z,93.41
2018-05-18T02:39:56.030Z,93.04
2018-05-18T02:40:56.033Z,93.51
2018-05-18T02:41:55.989Z,93.41
2018-05-18T02:42:55.967Z,92.84
2018-05-18T02:43:55.949Z,93.79
2018-05-18T02:44:55.939Z,93.13
2018-05-18T02:45:55.918Z,93.60
2018-05-18T02:46:55.903Z,93.51
2018-05-18T02:47:55.875Z,93.23
2018-05-18T02:48:55.853Z,93.13
2018-05-18T02:49:55.834Z,93.60
2018-05-18T02:50:55.814Z,93.04
2018-05-18T02:51:55.807Z,93.70
2018-05-18T02:52:55.773Z,92.94
2018-05-18T02:53:55.754Z,93.04
2018-05-18T02:54:55.740Z,93.13
2018-05-18T02:55:55.714Z,93.79
2018-05-18T02:56:55.708Z,93.32
2018-05-18T02:57:55.675Z,93.04
2018-05-18T02:58:55.658Z,93.41
2018-05-18T02:59:55.639Z,93.32
2018-05-18T03:00:55.617Z,93.41
2018-05-18T03:01:55.615Z,93.04
2018-05-18T03:02:55.577Z,93.41
2018-05-18T03:03:55.559Z,92.94
2018-05-18T03:04:55.538Z,93.13
2018-05-18T03:05:55.523Z,92.84
2018-05-18T03:06:55.501Z,92.75
2018-05-18T03:07:55.495Z,92.08
2018-05-18T03:08:55.461Z,92.18
2018-05-18T03:09:55.441Z,92.27
2018-05-18T03:10:55.422Z,92.84
2018-05-18T03:11:55.403Z,92.84
2018-05-18T03:12:55.385Z,93.23
2018-05-18T03:13:55.376Z,92.94
2018-05-18T03:14:55.348Z,92.84
2018-05-18T03:15:55.329Z,92.46
2018-05-18T03:16:55.304Z,92.84
2018-05-18T03:17:55.285Z,92.84
2018-05-18T03:18:55.275Z,93.04
2018-05-18T03:19:55.248Z,92.84
2018-05-18T03:20:55.276Z,93.04
2018-05-18T03:21:55.206Z,93.32
2018-05-18T03:22:55.187Z,92.84
2018-05-18T03:23:55.179Z,92.89
2018-05-18T03:24:55.148Z,93.04
2018-05-18T03:25:55.129Z,92.84
2018-05-18T03:26:55.108Z,92.89
2018-05-18T03:27:55.090Z,92.89
2018-05-18T03:28:55.090Z,93.08
2018-05-18T03:29:55.054Z,92.22
2018-05-18T03:30:55.031Z,93.27
2018-05-18T03:31:55.017Z,93.18
2018-05-18T03:32:54.992Z,92.79
2018-05-18T03:33:54.973Z,93.27
2018-05-18T03:34:54.971Z,93.18
2018-05-18T03:35:54.934Z,92.70
2018-05-18T03:36:54.915Z,92.70
2018-05-18T03:37:54.896Z,92.79
2018-05-18T03:38:54.875Z,92.79
2018-05-18T03:39:54.856Z,92.32
2018-05-18T03:40:54.855Z,92.41
2018-05-18T03:41:54.820Z,91.75
2018-05-18T03:42:54.797Z,91.75
2018-05-18T03:43:54.779Z,91.84
2018-05-18T03:44:54.785Z,91.27
2018-05-18T03:45:54.752Z,91.46
2018-05-18T03:46:54.722Z,90.70
2018-05-18T03:47:54.702Z,90.22
2018-05-18T03:48:54.683Z,90.32
2018-05-18T03:49:54.663Z,90.32
2018-05-18T03:50:54.660Z,90.32
2018-05-18T03:51:54.622Z,90.80
2018-05-18T03:52:54.604Z,90.80
2018-05-18T03:53:54.585Z,90.89
2018-05-18T03:54:54.566Z,90.70
2018-05-18T03:55:54.547Z,91.27
2018-05-18T03:56:54.544Z,90.89
2018-05-18T03:57:54.508Z,90.61
2018-05-18T03:58:54.489Z,90.99
2018-05-18T03:59:54.467Z,91.37
2018-05-18T04:00:54.449Z,90.70
2018-05-18T04:01:54.433Z,91.37
2018-05-18T04:02:54.420Z,91.08
2018-05-18T04:03:54.392Z,90.80
2018-05-18T04:04:54.370Z,90.13
2018-05-18T04:05:54.354Z,90.32
2018-05-18T04:06:54.337Z,90.80
2018-05-18T04:07:54.350Z,90.42
2018-05-18T04:08:54.293Z,90.70
2018-05-18T04:09:54.276Z,90.70
2018-05-18T04:10:54.258Z,90.80
2018-05-18T04:11:54.237Z,91.17
2018-05-18T04:12:54.232Z,90.80
2018-05-18T04:13:54.197Z,91.46
2018-05-18T04:14:54.179Z,90.99
2018-05-18T04:15:54.171Z,90.89
2018-05-18T04:16:54.141Z,91.27
2018-05-18T04:17:54.123Z,91.27
2018-05-18T04:18:54.111Z,90.70
2018-05-18T04:19:54.177Z,90.42
2018-05-18T04:20:54.064Z,91.46
2018-05-18T04:21:54.050Z,90.61
2018-05-18T04:22:54.027Z,90.51
2018-05-18T04:23:54.021Z,90.32
2018-05-18T04:24:53.987Z,90.22
2018-05-18T04:25:53.968Z,90.13
2018-05-18T04:26:53.947Z,90.80
2018-05-18T04:27:53.928Z,90.51
2018-05-18T04:28:53.911Z,90.13
2018-05-18T04:29:53.908Z,90.32
2018-05-18T04:30:53.872Z,90.70
2018-05-18T04:31:53.854Z,91.17
2018-05-18T04:32:53.837Z,90.80
2018-05-18T04:33:53.817Z,91.27
2018-05-18T04:34:53.796Z,90.89
2018-05-18T04:35:53.786Z,90.42
2018-05-18T04:36:53.758Z,90.42
2018-05-18T04:37:53.736Z,90.70
2018-05-18T04:38:53.718Z,91.27
2018-05-18T04:39:53.697Z,91.56
2018-05-18T04:40:53.690Z,91.65
2018-05-18T04:41:53.663Z,90.89
2018-05-18T04:42:53.641Z,90.70
2018-05-18T04:43:53.620Z,90.70
2018-05-18T04:44:53.603Z,91.56
2018-05-18T04:45:53.596Z,90.70
2018-05-18T04:46:53.565Z,91.17
2018-05-18T04:47:53.546Z,91.37
2018-05-18T04:48:53.527Z,90.99
2018-05-18T04:49:53.511Z,90.42
2018-05-18T04:50:53.508Z,90.32
2018-05-18T04:51:53.467Z,90.32
2018-05-18T04:52:53.454Z,89.94
2018-05-18T04:53:53.436Z,90.42
2018-05-18T04:54:53.411Z,90.89
2018-05-18T04:55:53.402Z,89.75
2018-05-18T04:56:53.372Z,90.22
2018-05-18T04:57:53.358Z,90.89
2018-05-18T04:58:53.405Z,89.94
2018-05-18T04:59:53.315Z,90.32
2018-05-18T05:00:53.312Z,88.99
2018-05-18T05:01:53.282Z,89.56
2018-05-18T05:02:53.257Z,89.37
2018-05-18T05:03:53.239Z,89.47
2018-05-18T05:04:53.221Z,89.27
2018-05-18T05:05:53.201Z,90.32
2018-05-18T05:06:53.193Z,89.56
2018-05-18T05:07:53.162Z,89.94
2018-05-18T05:08:53.147Z,88.60
2018-05-18T05:09:53.128Z,88.99
2018-05-18T05:10:53.109Z,88.89
2018-05-18T05:11:53.101Z,88.13
2018-05-18T05:12:53.066Z,87.94
2018-05-18T05:13:53.048Z,87.75
2018-05-18T05:14:53.030Z,87.65
2018-05-18T05:15:53.011Z,88.70
2018-05-18T05:16:52.993Z,88.13
2018-05-18T05:17:52.986Z,88.23
2018-05-18T05:18:52.952Z,88.79
2018-05-18T05:19:52.933Z,88.99
2018-05-18T05:20:52.914Z,88.70
2018-05-18T05:21:52.897Z,88.99
2018-05-18T05:22:52.893Z,88.42
2018-05-18T05:23:52.858Z,88.70
2018-05-18T05:24:52.839Z,89.08
2018-05-18T05:25:52.819Z,88.42
2018-05-18T05:26:52.798Z,88.65
2018-05-18T05:27:52.791Z,88.32
2018-05-18T05:28:52.825Z,88.23
2018-05-18T05:29:52.743Z,87.75
2018-05-18T05:30:52.724Z,87.41
2018-05-18T05:31:52.707Z,88.37
2018-05-18T05:32:52.700Z,87.98
2018-05-18T05:33:52.668Z,87.23
2018-05-18T05:34:52.647Z,87.18
2018-05-18T05:35:52.629Z,87.32
2018-05-18T05:36:52.609Z,86.61
2018-05-18T05:37:52.593Z,86.46
2018-05-18T05:38:52.580Z,86.18
2018-05-18T05:39:52.551Z,86.18
2018-05-18T05:40:52.554Z,86.75
2018-05-18T05:41:52.515Z,87.03
2018-05-18T05:42:52.494Z,85.80
2018-05-18T05:43:52.486Z,85.60
2018-05-18T05:44:52.457Z,85.08
2018-05-18T05:45:52.441Z,85.41
2018-05-18T05:46:52.420Z,85.32
2018-05-18T05:47:52.402Z,85.51
2018-05-18T05:48:52.403Z,85.03
2018-05-18T05:49:52.363Z,84.56
2018-05-18T05:50:52.345Z,84.84
2018-05-18T05:51:52.323Z,85.03
2018-05-18T05:52:52.342Z,85.03
2018-05-18T05:53:52.311Z,84.84
2018-05-18T05:54:52.265Z,84.75
2018-05-18T05:55:52.247Z,84.75
2018-05-18T05:56:52.228Z,85.13
2018-05-18T05:57:52.214Z,84.08
2018-05-18T05:58:52.189Z,84.08
2018-05-18T05:59:52.181Z,84.08
2018-05-18T06:00:52.154Z,84.27
2018-05-18T06:01:52.137Z,83.80
2018-05-18T06:02:52.115Z,83.80
2018-05-18T06:03:52.100Z,83.13
2018-05-18T06:04:52.090Z,83.32
2018-05-18T06:05:52.059Z,83.22
2018-05-18T06:06:52.039Z,83.13
2018-05-18T06:07:52.021Z,83.22
2018-05-18T06:08:52.002Z,83.89
2018-05-18T06:09:52.000Z,84.27
2018-05-18T06:10:51.964Z,83.70
2018-05-18T06:11:51.988Z,84.27
2018-05-18T06:12:51.926Z,83.98
2018-05-18T06:13:51.908Z,83.22
2018-05-18T06:14:51.890Z,83.22
2018-05-18T06:15:51.881Z,83.13
2018-05-18T06:16:51.851Z,82.56
2018-05-18T06:17:51.834Z,82.84
2018-05-18T06:18:51.814Z,82.75
2018-05-18T06:19:51.796Z,83.03
2018-05-18T06:20:51.798Z,83.41
2018-05-18T06:21:51.758Z,83.18
2018-05-18T06:22:51.737Z,83.70
2018-05-18T06:23:51.723Z,84.08
2018-05-18T06:24:51.702Z,83.89
2018-05-18T06:25:51.682Z,83.61
2018-05-18T06:26:51.676Z,83.32
2018-05-18T06:27:51.649Z,83.70
2018-05-18T06:28:51.624Z,84.17
2018-05-18T06:29:51.608Z,83.70
2018-05-18T06:30:51.587Z,83.80
2018-05-18T06:31:51.578Z,83.41
2018-05-18T06:32:51.552Z,83.98
2018-05-18T06:33:51.533Z,83.98
2018-05-18T06:34:51.566Z,83.70
2018-05-18T06:35:51.498Z,83.13
2018-05-18T06:36:51.486Z,83.32
2018-05-18T06:37:51.461Z,83.98
2018-05-18T06:38:51.439Z,83.61
2018-05-18T06:39:51.418Z,82.84
2018-05-18T06:40:51.404Z,82.56
2018-05-18T06:41:51.395Z,82.56
2018-05-18T06:42:51.361Z,81.89
2018-05-18T06:43:51.348Z,81.79
2018-05-18T06:44:51.328Z,81.41
2018-05-18T06:45:51.309Z,81.51
2018-05-18T06:46:51.315Z,83.22
2018-05-18T06:47:51.271Z,82.12
2018-05-18T06:48:51.253Z,81.93
2018-05-18T06:49:51.232Z,81.84
2018-05-18T06:50:51.212Z,80.98
2018-05-18T06:51:51.193Z,81.65
2018-05-18T06:52:51.191Z,81.26
2018-05-18T06:53:51.157Z,81.26
2018-05-18T06:54:51.136Z,81.65
2018-05-18T06:55:51.120Z,80.94
2018-05-18T06:56:51.103Z,82.08
2018-05-18T06:57:51.097Z,81.03
2018-05-18T06:58:51.084Z,81.03
2018-05-18T06:59:51.046Z,80.94
2018-05-18T07:00:51.029Z,80.84
2018-05-18T07:01:51.014Z,80.84
2018-05-18T07:02:51.004Z,81.79
2018-05-18T07:03:50.972Z,80.84
2018-05-18T07:04:50.955Z,81.60
2018-05-18T07:05:50.937Z,81.51
2018-05-18T07:06:50.918Z,81.70
2018-05-18T07:07:50.911Z,81.32
2018-05-18T07:08:50.883Z,81.60
2018-05-18T07:09:50.863Z,80.84
2018-05-18T07:10:50.846Z,81.03
2018-05-18T07:11:50.825Z,81.41
2018-05-18T07:12:50.818Z,80.84
2018-05-18T07:13:50.792Z,80.94
2018-05-18T07:14:50.773Z,80.75
2018-05-18T07:15:50.759Z,80.65
2018-05-18T07:16:50.736Z,80.08
2018-05-18T07:17:50.725Z,80.84
2018-05-18T07:18:50.698Z,80.75
2018-05-18T07:19:50.678Z,80.02
2018-05-18T07:20:50.660Z,79.93
2018-05-18T07:21:50.645Z,80.60
2018-05-18T07:22:50.639Z,79.89
2018-05-18T07:23:50.604Z,80.22
2018-05-18T07:24:50.584Z,80.60
2018-05-18T07:25:50.569Z,80.46
2018-05-18T07:26:50.550Z,79.93
2018-05-18T07:27:50.532Z,79.46
2018-05-18T07:28:50.532Z,79.36
2018-05-18T07:29:50.496Z,79.46
2018-05-18T07:30:50.479Z,79.64
2018-05-18T07:31:50.459Z,79.27
2018-05-18T07:32:50.441Z,79.22
2018-05-18T07:33:50.422Z,79.36
2018-05-18T07:34:50.417Z,79.74
2018-05-18T07:35:50.385Z,79.36
2018-05-18T07:36:50.368Z,79.83
2018-05-18T07:37:50.350Z,79.46
2018-05-18T07:38:50.330Z,79.99
2018-05-18T07:39:50.324Z,80.79
2018-05-18T07:40:50.295Z,80.69
2018-05-18T07:41:50.277Z,79.70
2018-05-18T07:42:50.259Z,80.60
2018-05-18T07:43:50.299Z,80.69
2018-05-18T07:44:50.244Z,79.74
2018-05-18T07:45:50.204Z,79.64
2018-05-18T07:46:50.186Z,79.36
2018-05-18T07:47:50.171Z,79.17
2018-05-18T07:48:50.150Z,78.59
2018-05-18T07:49:50.131Z,78.88
2018-05-18T07:50:50.124Z,77.93
2018-05-18T07:51:50.099Z,77.78
2018-05-18T07:52:50.082Z,76.88
2018-05-18T07:53:50.060Z,77.78
2018-05-18T07:54:50.043Z,77.74
2018-05-18T07:55:50.035Z,77.74
2018-05-18T07:56:50.006Z,78.41
2018-05-18T07:57:49.990Z,78.41
2018-05-18T07:58:49.972Z,77.74
2018-05-18T07:59:49.952Z,78.50
2018-05-18T08:00:49.974Z,78.69
2018-05-18T08:01:49.919Z,78.69
2018-05-18T08:02:49.900Z,78.31
2018-05-18T08:03:49.883Z,78.22
2018-05-18T08:04:49.867Z,77.80
2018-05-18T08:05:49.847Z,77.74
2018-05-18T08:06:49.844Z,78.98
2018-05-18T08:07:49.835Z,77.17
2018-05-18T08:08:49.794Z,77.64
2018-05-18T08:09:49.777Z,77.74
2018-05-18T08:10:49.759Z,77.07
2018-05-18T08:11:49.752Z,77.74
2018-05-18T08:12:49.725Z,76.92
2018-05-18T08:13:49.704Z,76.40
2018-05-18T08:14:49.687Z,76.40
2018-05-18T08:15:49.671Z,76.50
2018-05-18T08:16:49.664Z,75.49
2018-05-18T08:17:49.635Z,73.87
2018-05-18T08:18:49.617Z,73.68
2018-05-18T08:19:49.601Z,74.19
2018-05-18T08:20:49.582Z,74.01
2018-05-18T08:21:49.579Z,72.44
2018-05-18T08:22:49.547Z,72.31
2018-05-18T08:23:49.530Z,72.97
2018-05-18T08:24:49.512Z,74.73
2018-05-18T08:25:49.496Z,73.30
2018-05-18T08:26:49.477Z,73.52
2018-05-18T08:27:49.471Z,71.23
2018-05-18T08:28:49.488Z,71.62
2018-05-18T08:29:49.426Z,70.67
2018-05-18T08:30:49.407Z,71.23
2018-05-18T08:31:49.389Z,70.67
2018-05-18T08:32:49.388Z,70.67
2018-05-18T08:33:49.356Z,70.76
2018-05-18T08:34:49.338Z,70.28
2018-05-18T08:35:49.321Z,70.00
2018-05-18T08:36:49.306Z,69.46
2018-05-18T08:37:49.307Z,69.56
2018-05-18T08:38:49.270Z,70.13
2018-05-18T08:39:49.255Z,70.13
2018-05-18T08:40:49.239Z,70.89
2018-05-18T08:41:49.228Z,70.19
2018-05-18T08:42:49.206Z,70.67
2018-05-18T08:43:49.197Z,71.04
2018-05-18T08:44:49.172Z,70.28
2018-05-18T08:45:49.154Z,70.28
2018-05-18T08:46:49.138Z,69.27
2018-05-18T08:47:49.122Z,68.22
2018-05-18T08:48:49.118Z,67.21
2018-05-18T08:49:49.089Z,68.35
2018-05-18T08:50:49.070Z,68.06
2018-05-18T08:51:49.057Z,68.79
2018-05-18T08:52:49.041Z,68.47
2018-05-18T08:53:49.039Z,68.47
2018-05-18T08:54:49.006Z,69.62
2018-05-18T08:55:48.990Z,69.14
2018-05-18T08:56:48.973Z,70.70
2018-05-18T08:57:48.957Z,70.32
2018-05-18T08:58:48.943Z,68.79
2018-05-18T08:59:48.940Z,69.37
2018-05-18T09:00:48.907Z,70.03
2018-05-18T09:01:48.890Z,68.79
2018-05-18T09:02:48.874Z,68.98
2018-05-18T09:03:48.860Z,68.82
2018-05-18T09:04:48.863Z,67.77
2018-05-18T09:05:48.825Z,66.35
2018-05-18T09:06:48.808Z,67.58
2018-05-18T09:07:48.792Z,68.82
2018-05-18T09:08:48.858Z,68.26
2018-05-18T09:09:48.762Z,67.40
2018-05-18T09:10:48.756Z,66.44
2018-05-18T09:11:48.729Z,67.11
2018-05-18T09:12:48.711Z,66.92
2018-05-18T09:13:48.694Z,66.53
2018-05-18T09:14:48.676Z,66.44
2018-05-18T09:15:48.682Z,65.87
2018-05-18T09:16:48.646Z,64.81
2018-05-18T09:17:48.629Z,66.06
2018-05-18T09:18:48.613Z,66.06
2018-05-18T09:19:48.596Z,65.77
2018-05-18T09:20:48.579Z,65.10
2018-05-18T09:21:48.574Z,65.58
2018-05-18T09:22:48.547Z,67.77
2018-05-18T09:23:48.531Z,67.71
2018-05-18T09:24:48.517Z,66.09
2018-05-18T09:25:48.499Z,65.14
2018-05-18T09:26:48.493Z,65.10
2018-05-18T09:27:48.467Z,65.67
2018-05-18T09:28:48.451Z,65.87
2018-05-18T09:29:48.435Z,66.25
2018-05-18T09:30:48.418Z,65.87
2018-05-18T09:31:48.412Z,65.67
2018-05-18T09:32:48.386Z,66.44
2018-05-18T09:33:48.453Z,65.39
2018-05-18T09:34:48.351Z,64.15
2018-05-18T09:35:48.337Z,65.14
2018-05-18T09:36:48.342Z,64.75
2018-05-18T09:37:48.304Z,64.09
2018-05-18T09:38:48.289Z,66.00
2018-05-18T09:39:48.344Z,64.59
2018-05-18T09:40:48.255Z,64.28
2018-05-18T09:41:48.243Z,63.23
2018-05-18T09:42:48.235Z,63.51
2018-05-18T09:43:48.208Z,63.23
2018-05-18T09:44:48.195Z,64.56
2018-05-18T09:45:48.179Z,66.00
2018-05-18T09:46:48.159Z,65.96
2018-05-18T09:47:48.159Z,65.71
2018-05-18T09:48:48.128Z,65.23
2018-05-18T09:49:48.115Z,64.47
2018-05-18T09:50:48.096Z,65.04
2018-05-18T09:51:48.077Z,63.99
2018-05-18T09:52:48.065Z,64.59
2018-05-18T09:53:48.062Z,62.78
2018-05-18T09:54:48.176Z,63.54
2018-05-18T09:55:48.016Z,61.72
2018-05-18T09:56:48.001Z,62.40
2018-05-18T09:57:47.986Z,62.59
2018-05-18T09:58:47.979Z,62.87
2018-05-18T09:59:47.954Z,62.40
2018-05-18T10:00:47.959Z,62.97
2018-05-18T10:01:47.921Z,62.11
2018-05-18T10:02:47.906Z,62.52
2018-05-18T10:03:47.906Z,63.48
2018-05-18T10:04:47.874Z,61.57
2018-05-18T10:05:47.859Z,60.42
2018-05-18T10:06:47.845Z,62.71
2018-05-18T10:07:47.825Z,62.08
2018-05-18T10:08:47.829Z,64.05
2018-05-18T10:09:47.797Z,61.47
2018-05-18T10:10:47.781Z,61.66
2018-05-18T10:11:47.763Z,60.33
2018-05-18T10:12:47.750Z,62.04
2018-05-18T10:13:47.762Z,61.92
2018-05-18T10:14:47.717Z,61.16
2018-05-18T10:15:47.703Z,61.13
2018-05-18T10:16:47.684Z,62.01
2018-05-18T10:17:47.672Z,61.06
2018-05-18T10:18:47.668Z,62.01
2018-05-18T10:19:47.637Z,60.99
2018-05-18T10:20:47.624Z,60.90
2018-05-18T10:21:47.611Z,59.44
2018-05-18T10:22:47.592Z,59.91
2018-05-18T10:23:47.589Z,61.09
2018-05-18T10:24:47.564Z,60.80
2018-05-18T10:25:47.545Z,59.44
2018-05-18T10:26:47.530Z,60.30
2018-05-18T10:27:47.515Z,59.66
2018-05-18T10:28:47.505Z,59.27
2018-05-18T10:29:47.483Z,57.84
2018-05-18T10:30:47.466Z,57.65
2018-05-18T10:31:47.451Z,58.63
2018-05-18T10:32:47.502Z,58.25
2018-05-18T10:33:47.431Z,58.28
2018-05-18T10:34:47.404Z,57.68
2018-05-18T10:35:47.388Z,57.48
2018-05-18T10:36:47.375Z,57.48
2018-05-18T10:37:47.358Z,56.62
2018-05-18T10:38:47.351Z,57.20
2018-05-18T10:39:47.328Z,57.48
2018-05-18T10:40:47.313Z,56.53
2018-05-18T10:41:47.297Z,56.72
2018-05-18T10:42:47.281Z,56.43
2018-05-18T10:43:47.282Z,56.88
2018-05-18T10:44:47.251Z,57.58
2018-05-18T10:45:47.238Z,56.40
2018-05-18T10:46:47.219Z,57.75
2018-05-18T10:47:47.205Z,57.20
2018-05-18T10:48:47.195Z,57.80
2018-05-18T10:49:47.195Z,56.53
2018-05-18T10:50:47.156Z,56.50
2018-05-18T10:51:47.145Z,57.20
2018-05-18T10:52:47.131Z,57.13
2018-05-18T10:53:47.115Z,57.42
2018-05-18T10:54:47.123Z,56.97
2018-05-18T10:55:47.083Z,55.53
2018-05-18T10:56:47.068Z,54.48
2018-05-18T10:57:47.055Z,54.79
2018-05-18T10:58:47.041Z,54.96
2018-05-18T10:59:47.023Z,54.03
2018-05-18T11:00:47.018Z,52.97
2018-05-18T11:01:46.995Z,52.59
2018-05-18T11:02:46.979Z,51.85
2018-05-18T11:03:46.962Z,53.12
2018-05-18T11:04:46.949Z,51.32
2018-05-18T11:05:46.944Z,51.28
2018-05-18T11:06:46.919Z,48.69
2018-05-18T11:07:46.903Z,48.07
2018-05-18T11:08:46.893Z,49.79
2018-05-18T11:09:46.874Z,51.59
2018-05-18T11:10:46.872Z,53.72
2018-05-18T11:11:46.847Z,52.40
2018-05-18T11:12:46.831Z,50.68
2018-05-18T11:13:46.815Z,49.05
2018-05-18T11:14:46.801Z,49.52
2018-05-18T11:15:46.786Z,49.33
2018-05-18T11:16:46.783Z,49.52
2018-05-18T11:17:46.761Z,50.68
2018-05-18T11:18:46.743Z,49.52
2018-05-18T11:19:46.728Z,50.03
2018-05-18T11:20:46.715Z,50.56
2018-05-18T11:21:46.711Z,50.58
2018-05-18T11:22:46.689Z,51.64
2018-05-18T11:23:46.673Z,50.75
2018-05-18T11:24:46.657Z,50.49
2018-05-18T11:25:46.642Z,50.01
2018-05-18T11:26:46.641Z,50.03
2018-05-18T11:27:46.615Z,47.94
2018-05-18T11:28:46.600Z,48.04
2018-05-18T11:29:46.586Z,49.72
2018-05-18T11:30:46.575Z,49.96
2018-05-18T11:31:46.573Z,49.82
2018-05-18T11:32:46.543Z,48.57
2018-05-18T11:33:46.529Z,49.72
2018-05-18T11:34:46.513Z,49.79
2018-05-18T11:35:46.501Z,48.16
2018-05-18T11:36:46.487Z,48.09
2018-05-18T11:37:46.481Z,47.58
2018-05-18T11:38:46.459Z,47.77
2018-05-18T11:39:46.444Z,48.76
2018-05-18T11:40:46.430Z,47.05
2018-05-18T11:41:46.418Z,48.49
2018-05-18T11:42:46.411Z,49.10
2018-05-18T11:43:46.388Z,46.98
2018-05-18T11:44:46.376Z,46.59
2018-05-18T11:45:46.365Z,47.66
2018-05-18T11:46:46.346Z,47.63
2018-05-18T11:47:46.341Z,48.47
2018-05-18T11:48:46.315Z,48.49
2018-05-18T11:49:46.302Z,48.09
2018-05-18T11:50:46.288Z,47.41
2018-05-18T11:51:46.275Z,47.05
2018-05-18T11:52:46.275Z,46.96
2018-05-18T11:53:46.247Z,46.50
2018-05-18T11:54:46.246Z,45.49
2018-05-18T11:55:46.219Z,43.66
2018-05-18T11:56:46.205Z,44.07
2018-05-18T11:57:46.191Z,44.77
2018-05-18T11:58:46.188Z,45.37
2018-05-18T11:59:46.164Z,45.68
2018-05-18T12:00:46.149Z,45.54
2018-05-18T12:01:46.136Z,47.13
2018-05-18T12:02:46.166Z,46.62
2018-05-18T12:03:46.124Z,46.43
2018-05-18T12:04:46.094Z,47.89
2018-05-18T12:05:46.081Z,49.22
2018-05-18T12:06:46.064Z,47.97
2018-05-18T12:07:46.052Z,46.93
2018-05-18T12:08:46.040Z,47.82
2018-05-18T12:09:46.035Z,47.89
2018-05-18T12:10:46.011Z,47.51
2018-05-18T12:11:45.996Z,46.98
2018-05-18T12:12:45.984Z,46.67
2018-05-18T12:13:45.974Z,46.21
2018-05-18T12:14:45.973Z,46.64
2018-05-18T12:15:45.947Z,46.09
2018-05-18T12:16:45.930Z,44.26
2018-05-18T12:17:45.915Z,44.07
2018-05-18T12:18:45.903Z,42.70
2018-05-18T12:19:45.898Z,43.93
2018-05-18T12:20:45.876Z,45.68
2018-05-18T12:21:45.863Z,44.96
2018-05-18T12:22:45.848Z,42.80
2018-05-18T12:23:45.836Z,43.95
2018-05-18T12:24:45.837Z,43.54
2018-05-18T12:25:45.810Z,44.70
2018-05-18T12:26:45.794Z,45.92
2018-05-18T12:27:45.781Z,44.91
2018-05-18T12:28:45.769Z,44.65
2018-05-18T12:29:45.774Z,43.82
2018-05-18T12:30:45.742Z,42.43
2018-05-18T12:31:45.727Z,41.78
2018-05-18T12:32:45.715Z,42.82
2018-05-18T12:33:45.713Z,45.50
2018-05-18T12:34:45.686Z,45.40
2018-05-18T12:35:45.685Z,46.79
2018-05-18T12:36:45.663Z,45.56
2018-05-18T12:37:45.650Z,44.38
2018-05-18T12:38:45.635Z,45.92
2018-05-18T12:39:45.623Z,45.25
2018-05-18T12:40:45.621Z,44.34
2018-05-18T12:41:45.597Z,44.96
2018-05-18T12:42:45.582Z,45.22
2018-05-18T12:43:45.571Z,44.41
2018-05-18T12:44:45.631Z,44.14
2018-05-18T12:45:45.568Z,44.17
2018-05-18T12:46:45.529Z,43.95
2018-05-18T12:47:45.517Z,43.66
2018-05-18T12:48:45.505Z,44.12
2018-05-18T12:49:45.493Z,44.58
2018-05-18T12:50:45.477Z,44.53
2018-05-18T12:51:45.482Z,42.50
2018-05-18T12:52:45.453Z,43.01